Time;durP1;ratioP1;P1;durP2;ratioP2;P2;SDS_P1;SDS_P2;PMS_P1;PMS_P2;Temp;Humidity;BMP_temperature;BMP_pressure;BME280_temperature;BME280_humidity;BME280_pressure;Samples;Min_cycle;Max_cycle;Signal;HPM_P1;HPM_P2
2023/07/27 00:01:55;;;;;;;7.67;6.93;;;15.40;99.90;;;;;;5034216;28;20842;-71
2023/07/27 00:04:24;;;;;;;9.50;8.60;;;15.40;99.90;;;;;;5034279;28;20479;-71
2023/07/27 00:06:53;;;;;;;8.57;7.77;;;15.30;99.90;;;;;;5034558;28;20512;-71
2023/07/27 00:09:21;;;;;;;8.70;7.97;;;15.30;99.90;;;;;;5034245;28;20546;-71
2023/07/27 00:11:49;;;;;;;9.43;8.53;;;15.30;99.90;;;;;;5033982;28;20983;-71
2023/07/27 00:14:17;;;;;;;9.70;8.80;;;15.20;99.90;;;;;;5034090;28;20445;-71
2023/07/27 00:16:45;;;;;;;10.00;9.10;;;15.20;99.90;;;;;;5033984;28;20847;-71
2023/07/27 00:19:13;;;;;;;10.93;8.60;;;15.20;99.90;;;;;;5034119;28;20971;-71
2023/07/27 00:21:43;;;;;;;9.87;8.87;;;15.20;99.90;;;;;;5032499;28;20479;-71
2023/07/27 00:24:11;;;;;;;10.30;9.27;;;15.10;99.90;;;;;;5033953;28;20438;-71
2023/07/27 00:26:41;;;;;;;9.43;8.63;;;15.10;99.90;;;;;;5033830;28;20936;-72
2023/07/27 00:29:09;;;;;;;9.33;8.53;;;15.10;99.90;;;;;;5035038;28;20421;-71
2023/07/27 00:31:37;;;;;;;9.03;8.23;;;15.00;99.90;;;;;;5032618;28;21029;-71
2023/07/27 00:34:06;;;;;;;9.10;8.30;;;15.00;99.90;;;;;;5034295;28;20482;-71
2023/07/27 00:36:34;;;;;;;9.27;8.27;;;15.00;99.90;;;;;;5032908;28;20470;-71
2023/07/27 00:39:05;;;;;;;8.77;7.97;;;15.00;99.90;;;;;;5032854;28;20512;-71
2023/07/27 00:41:33;;;;;;;9.07;8.27;;;15.00;99.90;;;;;;5033527;28;20956;-71
2023/07/27 00:44:01;;;;;;;9.87;8.90;;;14.90;99.90;;;;;;5033471;28;20434;-71
2023/07/27 00:46:29;;;;;;;9.47;8.63;;;14.90;99.90;;;;;;5033385;28;20491;-71
2023/07/27 00:48:58;;;;;;;9.93;8.90;;;14.90;99.90;;;;;;5032162;28;20449;-71
2023/07/27 00:51:26;;;;;;;9.63;8.53;;;14.90;99.90;;;;;;5033477;28;20884;-71
2023/07/27 00:53:54;;;;;;;11.03;8.47;;;14.90;99.90;;;;;;5032209;28;20443;-71
2023/07/27 00:56:24;;;;;;;10.00;9.00;;;14.90;99.90;;;;;;5032105;28;20453;-71
2023/07/27 00:58:52;;;;;;;10.13;9.27;;;14.90;99.90;;;;;;5032239;28;20546;-71
2023/07/27 01:01:21;;;;;;;10.73;9.40;;;14.80;99.90;;;;;;5031980;28;20901;-71
2023/07/27 01:03:50;;;;;;;10.20;9.13;;;14.80;99.90;;;;;;5033036;28;20449;-71
2023/07/27 01:06:18;;;;;;;11.17;10.10;;;14.80;99.90;;;;;;5031949;28;20443;-71
2023/07/27 01:08:46;;;;;;;10.47;9.53;;;14.80;99.90;;;;;;5033847;28;20474;-71
2023/07/27 01:11:24;;;;;;;12.27;10.90;;;14.70;99.90;;;;;;5032987;28;20561;-71
2023/07/27 01:14:00;;;;;;;10.87;9.77;;;14.70;99.90;;;;;;5032010;28;20493;-71
2023/07/27 01:16:34;;;;;;;11.83;10.67;;;14.70;99.90;;;;;;5033854;28;20418;-71
2023/07/27 01:19:27;;;;;;;11.93;10.73;;;14.70;99.90;;;;;;5032004;28;20469;-71
2023/07/27 01:22:13;;;;;;;11.87;10.70;;;14.70;99.90;;;;;;5033406;28;20481;-71
2023/07/27 01:25:05;;;;;;;11.00;9.83;;;14.70;99.90;;;;;;5033433;28;20426;-71
2023/07/27 01:27:56;;;;;;;11.77;10.67;;;14.70;99.90;;;;;;5031878;28;20911;-71
2023/07/27 01:30:54;;;;;;;10.33;9.23;;;14.70;99.90;;;;;;5034169;28;20425;-71
2023/07/27 01:33:29;;;;;;;10.93;9.80;;;14.70;99.90;;;;;;5003704;28;20922;-71
2023/07/27 01:36:06;;;;;;;11.50;10.40;;;14.70;99.90;;;;;;5034273;28;20433;-71
2023/07/27 01:38:38;;;;;;;11.80;10.70;;;14.60;99.90;;;;;;5036341;28;20433;-71
2023/07/27 01:41:09;;;;;;;13.43;10.33;;;14.70;99.90;;;;;;5035740;28;20441;-71
2023/07/27 01:43:38;;;;;;;12.23;11.23;;;14.70;99.90;;;;;;5034199;28;20932;-71
2023/07/27 01:46:09;;;;;;;11.63;10.43;;;14.70;99.90;;;;;;5034347;28;20496;-71
2023/07/27 01:48:41;;;;;;;12.20;11.00;;;14.70;99.90;;;;;;5034149;28;20398;-71
2023/07/27 01:51:11;;;;;;;11.93;10.83;;;14.60;99.90;;;;;;5034282;28;20462;-71
2023/07/27 01:53:41;;;;;;;11.80;10.80;;;14.60;99.90;;;;;;5033269;28;20427;-71
2023/07/27 01:56:12;;;;;;;12.03;10.93;;;14.70;99.90;;;;;;5033535;28;20431;-71
2023/07/27 01:58:41;;;;;;;12.13;10.73;;;14.60;99.90;;;;;;5032820;28;20435;-71
2023/07/27 02:01:11;;;;;;;13.07;11.73;;;14.70;99.90;;;;;;5031530;28;20475;-71
2023/07/27 02:03:39;;;;;;;11.50;10.40;;;14.60;99.90;;;;;;5033681;28;20434;-71
2023/07/27 02:06:08;;;;;;;11.03;9.93;;;14.70;99.90;;;;;;5032924;28;20442;-71
2023/07/27 02:08:36;;;;;;;12.30;11.30;;;14.70;99.90;;;;;;5031730;28;20525;-71
2023/07/27 02:11:06;;;;;;;11.77;10.67;;;14.70;99.90;;;;;;5031547;28;20578;-71
2023/07/27 02:13:46;;;;;;;11.50;10.40;;;14.70;99.90;;;;;;5033242;28;20427;-71
2023/07/27 02:16:20;;;;;;;10.77;9.83;;;14.70;99.90;;;;;;5033592;28;20875;-71
2023/07/27 02:18:51;;;;;;;11.87;10.87;;;14.70;99.90;;;;;;5051887;28;20477;-71
2023/07/27 02:21:22;;;;;;;11.80;10.77;;;14.70;99.90;;;;;;5036892;28;20813;-71
2023/07/27 02:23:51;;;;;;;12.67;11.57;;;14.70;99.90;;;;;;5051660;28;20822;-71
2023/07/27 02:26:19;;;;;;;12.53;11.40;;;14.60;99.90;;;;;;5035023;28;20888;-71
2023/07/27 02:28:47;;;;;;;11.50;10.40;;;14.70;99.90;;;;;;5036937;28;20482;-71
2023/07/27 02:31:19;;;;;;;12.30;11.20;;;14.60;99.90;;;;;;5034862;28;20467;-71
2023/07/27 02:33:47;;;;;;;13.90;12.70;;;14.60;99.90;;;;;;5034790;28;20797;-71
2023/07/27 02:36:15;;;;;;;12.60;11.60;;;14.60;99.90;;;;;;5034716;28;20454;-71
2023/07/27 02:38:44;;;;;;;12.10;11.10;;;14.60;99.90;;;;;;5034649;28;20799;-71
2023/07/27 02:41:12;;;;;;;13.13;11.93;;;14.60;99.90;;;;;;5035831;28;20834;-71
2023/07/27 02:43:42;;;;;;;12.60;11.60;;;14.70;99.90;;;;;;5034508;28;20561;-71
2023/07/27 02:46:11;;;;;;;13.20;12.00;;;14.70;99.90;;;;;;5034555;28;20458;-71
2023/07/27 02:48:41;;;;;;;15.07;13.60;;;14.70;99.90;;;;;;5034542;28;20517;-71
2023/07/27 02:51:09;;;;;;;12.77;11.63;;;14.70;99.90;;;;;;5034432;28;20470;-71
2023/07/27 02:53:37;;;;;;;13.90;12.60;;;14.70;99.90;;;;;;5035647;28;20439;-71
2023/07/27 02:56:18;;;;;;;11.90;10.90;;;14.70;99.90;;;;;;5034610;28;20982;-71
2023/07/27 02:58:49;;;;;;;14.57;13.20;;;14.70;99.90;;;;;;5034359;28;20528;-71
2023/07/27 03:01:19;;;;;;;13.47;12.27;;;14.70;99.90;;;;;;5034123;28;20525;-71
2023/07/27 03:03:55;;;;;;;13.77;12.57;;;14.70;99.90;;;;;;5034632;28;20432;-70
2023/07/27 03:06:23;;;;;;;13.60;12.30;;;14.70;99.90;;;;;;5034222;28;20453;-71
2023/07/27 03:08:56;;;;;;;13.07;11.87;;;14.70;99.90;;;;;;5034129;28;20439;-71
2023/07/27 03:11:25;;;;;;;12.63;11.50;;;14.70;99.90;;;;;;5033926;28;20509;-71
2023/07/27 03:13:54;;;;;;;16.63;15.17;;;14.70;99.90;;;;;;5035271;28;20417;-71
2023/07/27 03:16:22;;;;;;;17.33;15.53;;;14.70;99.90;;;;;;5033911;28;20458;-71
2023/07/27 03:18:51;;;;;;;13.57;12.30;;;14.70;99.90;;;;;;5034008;28;20501;-71
2023/07/27 03:21:21;;;;;;;15.03;13.70;;;14.70;99.90;;;;;;5035417;28;20504;-71
2023/07/27 03:23:49;;;;;;;15.90;14.53;;;14.70;99.90;;;;;;5033765;28;20471;-71
2023/07/27 03:26:18;;;;;;;16.47;15.00;;;14.70;99.90;;;;;;5033749;28;20976;-71
2023/07/27 03:28:46;;;;;;;15.70;14.33;;;14.70;99.90;;;;;;5032988;28;20537;-71
2023/07/27 03:31:19;;;;;;;15.20;13.87;;;14.70;99.90;;;;;;5035374;28;20457;-71
2023/07/27 03:33:48;;;;;;;15.60;14.10;;;14.70;99.90;;;;;;5034951;28;20414;-71
2023/07/27 03:36:17;;;;;;;14.80;13.30;;;14.70;99.90;;;;;;5033674;28;20443;-71
2023/07/27 03:38:48;;;;;;;15.03;13.83;;;14.70;99.90;;;;;;5033543;28;20501;-71
2023/07/27 03:41:16;;;;;;;14.60;13.20;;;14.70;99.90;;;;;;5033394;28;20824;-71
2023/07/27 03:43:44;;;;;;;13.90;12.70;;;14.70;99.90;;;;;;5033383;28;20470;-71
2023/07/27 03:46:13;;;;;;;14.40;13.20;;;14.70;99.90;;;;;;5033640;28;20497;-71
2023/07/27 03:48:41;;;;;;;14.77;13.53;;;14.70;99.90;;;;;;5033417;28;20475;-71
2023/07/27 03:51:09;;;;;;;15.30;13.80;;;14.70;99.90;;;;;;5033254;28;20554;-71
2023/07/27 03:53:38;;;;;;;15.00;13.70;;;14.70;99.90;;;;;;5033244;28;20447;-71
2023/07/27 03:56:08;;;;;;;14.23;13.00;;;14.70;99.90;;;;;;5033417;28;20439;-71
2023/07/27 03:58:36;;;;;;;16.40;14.90;;;14.70;99.90;;;;;;5033251;28;20457;-70
2023/07/27 04:01:04;;;;;;;16.27;14.87;;;14.70;99.90;;;;;;5033254;28;20541;-71
2023/07/27 04:03:32;;;;;;;16.10;14.60;;;14.70;99.90;;;;;;5032898;28;20470;-71
2023/07/27 04:06:00;;;;;;;15.73;14.03;;;14.80;99.90;;;;;;5033102;28;20500;-70
2023/07/27 04:08:28;;;;;;;16.30;14.80;;;14.80;99.90;;;;;;5033245;28;20546;-71
2023/07/27 04:10:57;;;;;;;15.83;14.50;;;14.80;99.90;;;;;;5032924;28;20453;-71
2023/07/27 04:13:26;;;;;;;15.90;14.60;;;14.80;99.90;;;;;;5032876;28;20823;-70
2023/07/27 04:15:54;;;;;;;16.73;15.33;;;14.80;99.90;;;;;;5034075;28;20435;-71
2023/07/27 04:18:22;;;;;;;16.30;14.80;;;14.80;99.90;;;;;;5032855;28;20479;-71
2023/07/27 04:20:51;;;;;;;17.73;16.13;;;14.80;99.90;;;;;;5032975;28;20463;-71
2023/07/27 04:23:19;;;;;;;17.33;15.83;;;14.80;99.90;;;;;;5032835;28;20470;-71
2023/07/27 04:25:47;;;;;;;17.00;15.40;;;14.80;99.90;;;;;;5032706;28;20425;-71
2023/07/27 04:28:15;;;;;;;17.30;15.80;;;14.80;99.90;;;;;;5032611;28;20443;-71
2023/07/27 04:30:45;;;;;;;14.67;13.37;;;14.80;99.90;;;;;;5032564;28;20950;-71
2023/07/27 04:33:13;;;;;;;16.73;15.23;;;14.80;99.90;;;;;;5033747;28;20439;-70
2023/07/27 04:35:41;;;;;;;17.40;15.70;;;14.80;99.90;;;;;;5034080;28;20435;-70
2023/07/27 04:38:09;;;;;;;20.60;18.47;;;14.80;99.90;;;;;;5033112;28;20948;-71
2023/07/27 04:40:37;;;;;;;17.63;16.13;;;14.80;99.90;;;;;;5032487;28;20435;-71
2023/07/27 04:43:05;;;;;;;18.80;17.20;;;14.80;99.90;;;;;;5032626;28;20467;-71
2023/07/27 04:45:33;;;;;;;18.70;17.10;;;14.80;99.90;;;;;;5034397;28;20473;-70
2023/07/27 04:48:06;;;;;;;19.33;17.60;;;14.90;99.90;;;;;;5032585;28;20451;-71
2023/07/27 04:50:34;;;;;;;21.57;19.50;;;14.80;99.90;;;;;;5032443;28;20493;-70
2023/07/27 04:53:02;;;;;;;18.93;17.20;;;14.90;99.90;;;;;;5032206;28;20443;-70
2023/07/27 04:55:30;;;;;;;18.40;16.80;;;14.90;99.90;;;;;;5033511;28;20990;-70
2023/07/27 04:57:58;;;;;;;18.60;16.93;;;14.90;99.90;;;;;;5033543;28;20485;-70
2023/07/27 05:00:26;;;;;;;16.87;15.47;;;14.90;99.90;;;;;;5032104;28;20447;-70
2023/07/27 05:02:56;;;;;;;17.83;16.13;;;14.90;99.90;;;;;;5032125;28;20446;-70
2023/07/27 05:05:26;;;;;;;16.50;15.10;;;14.90;99.90;;;;;;5033656;28;20412;-70
2023/07/27 05:07:54;;;;;;;17.30;15.80;;;14.90;99.90;;;;;;5034008;28;20509;-70
2023/07/27 05:10:23;;;;;;;16.80;15.40;;;14.90;99.90;;;;;;5032095;28;20450;-71
2023/07/27 05:12:51;;;;;;;17.67;16.17;;;15.00;99.90;;;;;;5033274;28;20807;-71
2023/07/27 05:15:19;;;;;;;15.80;14.50;;;15.00;99.90;;;;;;5033151;28;20439;-70
2023/07/27 05:17:48;;;;;;;16.30;14.70;;;15.00;99.90;;;;;;5033632;28;20447;-70
2023/07/27 05:20:16;;;;;;;16.47;15.00;;;15.00;99.90;;;;;;5033523;28;21019;-70
2023/07/27 05:22:46;;;;;;;15.37;14.07;;;15.00;99.90;;;;;;5033402;28;20461;-71
2023/07/27 05:25:14;;;;;;;15.20;13.90;;;15.00;99.90;;;;;;5033091;28;20502;-70
2023/07/27 05:27:42;;;;;;;15.40;14.20;;;15.00;99.90;;;;;;5033360;28;20449;-70
2023/07/27 05:30:11;;;;;;;17.10;15.70;;;15.10;99.90;;;;;;5031789;28;20555;-70
2023/07/27 05:32:40;;;;;;;14.90;13.60;;;15.10;99.90;;;;;;5033612;28;20461;-70
2023/07/27 05:35:08;;;;;;;16.90;15.40;;;15.10;99.90;;;;;;5031838;28;20923;-70
2023/07/27 05:37:36;;;;;;;16.53;15.03;;;15.10;99.90;;;;;;5033089;28;20521;-71
2023/07/27 05:40:09;;;;;;;15.23;13.83;;;15.10;99.90;;;;;;5032926;28;20478;-71
2023/07/27 05:42:37;;;;;;;16.77;15.37;;;15.10;99.90;;;;;;5033266;28;20432;-71
2023/07/27 05:45:06;;;;;;;15.83;14.53;;;15.20;99.90;;;;;;5032939;28;20563;-70
2023/07/27 05:47:34;;;;;;;15.80;14.50;;;15.20;99.90;;;;;;5033208;28;20442;-71
2023/07/27 05:50:02;;;;;;;18.20;16.67;;;15.20;99.90;;;;;;5032947;28;20441;-71
2023/07/27 05:52:30;;;;;;;16.13;14.73;;;15.20;99.90;;;;;;5036681;28;20466;-70
2023/07/27 05:54:59;;;;;;;16.43;15.03;;;15.20;99.90;;;;;;5034762;28;20994;-71
2023/07/27 05:57:28;;;;;;;16.23;14.77;;;15.20;99.90;;;;;;5036948;28;20533;-71
2023/07/27 05:59:56;;;;;;;17.07;15.57;;;15.20;99.90;;;;;;5037199;28;20452;-71
2023/07/27 06:02:34;;;;;;;16.77;15.17;;;15.20;99.90;;;;;;5036632;28;20454;-71
2023/07/27 06:05:03;;;;;;;17.77;16.07;;;15.30;99.90;;;;;;5036585;28;20516;-71
2023/07/27 06:07:31;;;;;;;16.33;14.97;;;15.30;99.90;;;;;;5036589;28;20981;-71
2023/07/27 06:09:59;;;;;;;16.50;15.10;;;15.30;99.90;;;;;;5036586;28;20838;-71
2023/07/27 06:12:28;;;;;;;17.70;16.30;;;15.30;99.90;;;;;;5036819;28;20455;-71
2023/07/27 06:14:57;;;;;;;18.70;17.00;;;15.40;99.90;;;;;;5035326;28;20421;-71
2023/07/27 06:17:25;;;;;;;16.30;15.00;;;15.40;99.90;;;;;;5035172;28;20450;-71
2023/07/27 06:19:54;;;;;;;15.93;14.43;;;15.30;99.90;;;;;;5036422;28;20446;-71
2023/07/27 06:22:22;;;;;;;17.53;15.93;;;15.40;99.90;;;;;;5036694;28;20454;-71
2023/07/27 06:24:51;;;;;;;16.00;14.57;;;15.40;99.90;;;;;;5037095;28;20509;-71
2023/07/27 06:27:19;;;;;;;15.97;14.50;;;15.40;99.90;;;;;;5036532;28;20960;-71
2023/07/27 06:29:48;;;;;;;17.50;15.97;;;15.40;99.90;;;;;;5036936;28;20452;-71
2023/07/27 06:32:16;;;;;;;17.17;15.47;;;15.40;99.90;;;;;;5036211;28;20467;-72
2023/07/27 06:34:45;;;;;;;17.50;16.00;;;15.40;99.90;;;;;;5035974;28;20920;-72
2023/07/27 06:37:13;;;;;;;16.73;15.30;;;15.40;99.90;;;;;;5036275;28;20435;-72
2023/07/27 06:39:41;;;;;;;17.70;16.10;;;15.50;99.90;;;;;;5036446;28;20431;-72
2023/07/27 06:42:09;;;;;;;15.83;14.37;;;15.50;99.90;;;;;;5035750;28;20508;-72
2023/07/27 06:44:38;;;;;;;17.47;15.70;;;15.50;99.90;;;;;;5034425;28;20442;-72
2023/07/27 06:47:08;;;;;;;19.27;17.47;;;15.50;99.90;;;;;;5035763;28;20435;-72
2023/07/27 06:49:36;;;;;;;19.60;17.70;;;15.60;99.90;;;;;;5036160;28;20443;-72
2023/07/27 06:52:07;;;;;;;18.03;16.50;;;15.60;99.90;;;;;;5034423;28;20440;-72
2023/07/27 06:54:35;;;;;;;15.57;14.07;;;15.60;99.90;;;;;;5034506;28;20505;-72
2023/07/27 06:57:07;;;;;;;18.30;16.70;;;15.60;99.90;;;;;;5035888;28;20534;-72
2023/07/27 06:59:36;;;;;;;16.80;15.33;;;15.70;99.90;;;;;;5036222;28;20420;-72
2023/07/27 07:02:04;;;;;;;17.27;15.70;;;15.70;99.90;;;;;;5035526;28;20450;-71
2023/07/27 07:04:34;;;;;;;19.03;17.20;;;15.70;99.90;;;;;;5036338;28;20517;-71
2023/07/27 07:07:07;;;;;;;17.00;15.40;;;15.70;99.90;;;;;;5034563;28;20417;-72
2023/07/27 07:09:35;;;;;;;17.07;15.37;;;15.80;99.90;;;;;;5034202;28;20475;-72
2023/07/27 07:12:05;;;;;;;19.57;17.83;;;15.80;99.90;;;;;;5034207;28;20441;-72
2023/07/27 07:14:33;;;;;;;21.87;19.60;;;15.80;99.90;;;;;;5035388;28;20438;-72
2023/07/27 07:17:02;;;;;;;16.97;15.47;;;15.80;99.90;;;;;;5035464;28;20776;-71
2023/07/27 07:19:30;;;;;;;17.73;15.50;;;15.80;99.90;;;;;;5035213;28;20409;-72
2023/07/27 07:22:00;;;;;;;16.70;15.10;;;15.90;99.90;;;;;;5033909;28;20541;-72
2023/07/27 07:24:28;;;;;;;17.37;15.53;;;15.90;99.90;;;;;;5035436;28;20502;-72
2023/07/27 07:26:56;;;;;;;16.97;15.27;;;15.90;99.90;;;;;;5035231;28;20526;-72
2023/07/27 07:29:24;;;;;;;18.43;16.50;;;15.90;99.90;;;;;;5035316;28;20995;-72
2023/07/27 07:31:52;;;;;;;17.97;16.27;;;15.90;99.90;;;;;;5035008;28;20775;-72
2023/07/27 07:34:21;;;;;;;20.80;18.80;;;15.90;99.90;;;;;;5034254;28;20513;-72
2023/07/27 07:36:49;;;;;;;18.77;17.07;;;16.00;99.90;;;;;;5033647;28;20418;-72
2023/07/27 07:39:18;;;;;;;17.40;15.80;;;16.00;99.90;;;;;;5035045;28;20879;-72
2023/07/27 07:41:47;;;;;;;17.27;15.47;;;16.00;99.90;;;;;;5034837;28;20469;-72
2023/07/27 07:44:15;;;;;;;16.77;15.27;;;16.00;99.90;;;;;;5033424;28;20426;-72
2023/07/27 07:46:43;;;;;;;17.47;15.80;;;16.10;99.90;;;;;;5034801;28;20431;-72
2023/07/27 07:49:11;;;;;;;18.23;16.50;;;16.10;99.90;;;;;;5034712;28;20801;-72
2023/07/27 07:51:39;;;;;;;15.80;14.40;;;16.10;99.90;;;;;;5035398;28;21012;-72
2023/07/27 07:54:09;;;;;;;16.47;15.10;;;16.10;99.90;;;;;;5034781;28;20435;-72
2023/07/27 07:56:39;;;;;;;16.00;14.70;;;16.20;99.90;;;;;;5034777;28;20398;-72
2023/07/27 07:59:07;;;;;;;17.50;15.90;;;16.20;99.90;;;;;;5035113;28;20568;-72
2023/07/27 08:01:35;;;;;;;17.83;16.33;;;16.20;99.90;;;;;;5035037;28;20436;-72
2023/07/27 08:04:04;;;;;;;17.63;16.07;;;16.20;99.90;;;;;;5034523;28;20445;-72
2023/07/27 08:06:33;;;;;;;16.07;14.77;;;16.30;99.90;;;;;;5034582;28;20441;-72
2023/07/27 08:09:01;;;;;;;18.57;16.67;;;16.30;99.90;;;;;;5035184;28;20442;-71
2023/07/27 08:11:29;;;;;;;16.83;15.33;;;16.30;99.90;;;;;;5034427;28;20473;-72
2023/07/27 08:14:01;;;;;;;18.20;16.43;;;16.40;99.90;;;;;;5032976;28;20799;-72
2023/07/27 08:16:30;;;;;;;16.50;15.10;;;16.40;99.90;;;;;;5034947;28;20419;-72
2023/07/27 08:18:59;;;;;;;18.07;16.57;;;16.50;99.90;;;;;;5034426;28;20431;-71
2023/07/27 08:21:28;;;;;;;16.10;14.80;;;16.50;99.90;;;;;;5032998;28;20480;-72
2023/07/27 08:23:59;;;;;;;16.70;15.20;;;16.50;99.90;;;;;;5034422;28;20402;-72
2023/07/27 08:26:28;;;;;;;17.70;15.97;;;16.60;99.90;;;;;;5034373;28;20438;-73
2023/07/27 08:28:57;;;;;;;15.27;13.97;;;16.60;99.90;;;;;;5034107;28;20807;-72
2023/07/27 08:31:27;;;;;;;20.47;18.63;;;16.60;99.90;;;;;;5034527;28;20426;-71
2023/07/27 08:33:56;;;;;;;15.80;14.30;;;16.60;99.90;;;;;;5034225;28;20394;-72
2023/07/27 08:36:24;;;;;;;14.87;13.23;;;16.70;99.90;;;;;;5034505;28;20787;-72
2023/07/27 08:38:52;;;;;;;15.40;14.07;;;16.70;99.90;;;;;;5033866;28;20651;-72
2023/07/27 08:41:21;;;;;;;14.67;13.47;;;16.70;99.90;;;;;;5032761;28;20466;-71
2023/07/27 08:43:50;;;;;;;15.00;13.77;;;16.80;99.90;;;;;;5034388;28;20401;-72
2023/07/27 08:46:21;;;;;;;14.63;13.43;;;16.80;99.90;;;;;;5033813;28;20551;-71
2023/07/27 08:48:52;;;;;;;17.57;16.13;;;16.80;99.90;;;;;;5033875;28;20493;-71
2023/07/27 08:51:20;;;;;;;14.73;13.50;;;16.80;99.90;;;;;;5033983;28;20436;-72
2023/07/27 08:53:48;;;;;;;14.40;13.23;;;16.90;99.90;;;;;;5033788;28;20463;-71
2023/07/27 08:56:16;;;;;;;14.33;12.93;;;16.90;99.90;;;;;;5033707;28;20456;-72
2023/07/27 08:58:44;;;;;;;14.33;13.10;;;16.90;99.90;;;;;;5033216;28;20998;-72
2023/07/27 09:01:15;;;;;;;15.03;12.70;;;16.90;99.90;;;;;;5034547;28;20497;-72
2023/07/27 09:03:44;;;;;;;13.80;12.60;;;16.90;99.90;;;;;;5034772;28;20429;-72
2023/07/27 09:06:13;;;;;;;12.97;11.83;;;16.90;99.90;;;;;;5034208;28;20545;-72
2023/07/27 09:08:42;;;;;;;13.67;12.37;;;16.90;99.90;;;;;;5034271;28;20923;-72
2023/07/27 09:11:12;;;;;;;14.00;12.83;;;17.00;99.90;;;;;;5033008;28;20996;-72
2023/07/27 09:13:42;;;;;;;13.83;12.60;;;17.00;99.90;;;;;;5034142;28;20409;-72
2023/07/27 09:16:10;;;;;;;14.03;12.73;;;17.00;99.90;;;;;;5034477;28;20903;-72
2023/07/27 09:18:38;;;;;;;12.90;11.70;;;17.00;99.90;;;;;;5034222;28;20435;-72
2023/07/27 09:21:08;;;;;;;13.23;12.03;;;17.00;99.90;;;;;;5032728;28;20817;-72
2023/07/27 09:23:39;;;;;;;12.73;11.73;;;17.00;99.90;;;;;;5034371;28;20423;-72
2023/07/27 09:26:07;;;;;;;13.30;12.20;;;17.00;99.90;;;;;;5034955;28;21030;-72
2023/07/27 09:28:36;;;;;;;11.70;10.80;;;17.00;99.90;;;;;;5038000;28;20409;-72
2023/07/27 09:31:04;;;;;;;15.20;13.90;;;17.10;99.90;;;;;;5036983;28;20549;-72
2023/07/27 09:33:32;;;;;;;13.17;12.07;;;17.00;99.90;;;;;;5038118;28;20488;-72
2023/07/27 09:36:01;;;;;;;14.17;13.07;;;17.10;99.90;;;;;;5036869;28;20852;-72
2023/07/27 09:38:30;;;;;;;14.00;12.70;;;17.10;99.90;;;;;;5036792;28;20460;-72
2023/07/27 09:41:06;;;;;;;13.47;12.27;;;17.10;99.90;;;;;;5038370;28;20483;-72
2023/07/27 09:43:38;;;;;;;12.90;11.90;;;17.10;99.90;;;;;;5038382;28;20459;-73
2023/07/27 09:46:06;;;;;;;13.83;12.80;;;17.20;99.90;;;;;;5036621;28;20553;-73
2023/07/27 09:48:35;;;;;;;13.43;12.23;;;17.30;99.90;;;;;;5037174;28;20422;-72
2023/07/27 09:51:06;;;;;;;12.80;11.80;;;17.30;99.90;;;;;;5037648;28;20946;-73
2023/07/27 09:53:36;;;;;;;12.73;11.57;;;17.30;99.90;;;;;;5036536;28;20413;-73
2023/07/27 09:56:07;;;;;;;12.03;11.03;;;17.30;99.90;;;;;;5037533;28;20467;-71
2023/07/27 09:58:39;;;;;;;13.67;12.57;;;17.30;99.90;;;;;;5035548;28;20439;-72
2023/07/27 10:01:07;;;;;;;12.90;11.70;;;17.40;99.90;;;;;;5037362;28;20465;-72
2023/07/27 10:03:35;;;;;;;11.60;10.60;;;17.40;99.90;;;;;;5036389;28;20481;-73
2023/07/27 10:06:04;;;;;;;12.73;11.83;;;17.40;99.90;;;;;;5037483;28;20452;-73
2023/07/27 10:08:33;;;;;;;12.37;11.20;;;17.40;99.90;;;;;;5037798;28;20446;-72
2023/07/27 10:11:02;;;;;;;11.90;10.87;;;17.40;99.90;;;;;;5037247;28;20824;-72
2023/07/27 10:13:40;;;;;;;10.77;9.87;;;17.40;99.90;;;;;;5035887;28;20451;-72
2023/07/27 10:16:10;;;;;;;11.37;10.37;;;17.40;99.90;;;;;;5037577;28;20423;-73
2023/07/27 10:18:41;;;;;;;11.60;10.33;;;17.40;99.90;;;;;;5036165;28;20812;-73
2023/07/27 10:21:26;;;;;;;11.30;10.50;;;17.40;99.90;;;;;;5037060;28;20795;-73
2023/07/27 10:23:56;;;;;;;11.30;10.40;;;17.40;99.90;;;;;;5036588;28;20389;-73
2023/07/27 10:26:50;;;;;;;11.10;10.17;;;17.40;99.90;;;;;;5036240;28;20482;-73
2023/07/27 10:29:22;;;;;;;11.73;10.60;;;17.30;99.90;;;;;;5031288;28;20944;-73
2023/07/27 10:32:04;;;;;;;11.63;10.73;;;17.30;99.90;;;;;;5034949;28;20462;-73
2023/07/27 10:34:33;;;;;;;11.40;10.50;;;17.30;99.90;;;;;;5036040;28;20424;-73
2023/07/27 10:37:09;;;;;;;11.70;10.73;;;17.30;99.90;;;;;;5036102;28;20415;-73
2023/07/27 10:39:44;;;;;;;11.23;10.33;;;17.30;99.90;;;;;;5034743;28;20529;-73
2023/07/27 10:42:15;;;;;;;11.17;10.30;;;17.30;99.90;;;;;;5036259;28;20989;-72
2023/07/27 10:44:49;;;;;;;11.13;10.13;;;17.30;99.90;;;;;;5035881;28;20435;-73
2023/07/27 10:47:21;;;;;;;9.83;9.03;;;17.30;99.90;;;;;;5035890;28;20958;-72
2023/07/27 10:49:52;;;;;;;8.30;7.60;;;17.30;99.90;;;;;;5036357;28;20401;-72
2023/07/27 10:52:21;;;;;;;7.57;6.97;;;17.30;99.90;;;;;;5035985;28;20467;-72
2023/07/27 10:54:51;;;;;;;6.97;6.47;;;17.40;99.90;;;;;;5035174;28;20849;-73
2023/07/27 10:57:20;;;;;;;8.73;8.13;;;17.40;99.90;;;;;;5035634;28;20467;-73
2023/07/27 10:59:51;;;;;;;7.43;6.53;;;17.40;99.90;;;;;;5035534;28;20439;-73
2023/07/27 11:02:21;;;;;;;6.60;6.00;;;17.40;99.90;;;;;;5034210;28;20842;-73
2023/07/27 11:04:51;;;;;;;6.77;6.17;;;17.40;99.90;;;;;;5034237;28;20515;-73
2023/07/27 11:07:27;;;;;;;7.50;6.90;;;17.30;99.90;;;;;;5035561;28;20463;-73
2023/07/27 11:09:56;;;;;;;6.30;5.87;;;17.30;99.90;;;;;;5035981;28;20405;-73
2023/07/27 11:12:24;;;;;;;6.50;6.00;;;17.30;99.90;;;;;;5035547;28;20987;-73
2023/07/27 11:14:53;;;;;;;7.10;6.50;;;17.30;99.90;;;;;;5035267;28;20434;-73
2023/07/27 11:17:22;;;;;;;7.20;6.67;;;17.30;99.90;;;;;;5035280;28;20530;-73
2023/07/27 11:19:52;;;;;;;6.67;6.17;;;17.30;99.90;;;;;;5033940;28;20798;-73
2023/07/27 11:22:22;;;;;;;5.33;4.83;;;17.30;99.90;;;;;;5035257;28;20445;-73
2023/07/27 11:24:50;;;;;;;6.00;5.40;;;17.30;99.90;;;;;;5035494;28;20390;-74
2023/07/27 11:27:19;;;;;;;5.87;4.70;;;17.30;99.90;;;;;;5034968;28;20466;-73
2023/07/27 11:29:49;;;;;;;5.30;4.90;;;17.30;99.90;;;;;;5035027;28;20969;-73
2023/07/27 11:32:26;;;;;;;5.37;4.83;;;17.30;99.90;;;;;;5035070;28;20430;-73
2023/07/27 11:34:55;;;;;;;5.60;5.10;;;17.30;99.90;;;;;;5035596;28;20414;-73
2023/07/27 11:37:26;;;;;;;5.53;5.13;;;17.30;99.90;;;;;;5035169;28;20417;-73
2023/07/27 11:39:55;;;;;;;5.10;4.70;;;17.30;99.90;;;;;;5034899;28;20454;-73
2023/07/27 11:42:27;;;;;;;5.60;5.20;;;17.30;99.90;;;;;;5033451;28;20809;-73
2023/07/27 11:44:56;;;;;;;5.70;5.20;;;17.30;99.90;;;;;;5034704;28;20419;-73
2023/07/27 11:47:26;;;;;;;6.27;5.83;;;17.30;99.90;;;;;;5034752;28;20478;-73
2023/07/27 11:49:55;;;;;;;5.70;5.17;;;17.40;99.90;;;;;;5034570;28;20913;-73
2023/07/27 11:52:25;;;;;;;6.30;5.90;;;17.40;99.90;;;;;;5033254;28;20986;-73
2023/07/27 11:54:55;;;;;;;6.17;5.77;;;17.40;99.90;;;;;;5033334;28;20413;-73
2023/07/27 11:57:26;;;;;;;6.50;6.00;;;17.50;99.90;;;;;;5034393;28;20431;-73
2023/07/27 12:00:03;;;;;;;7.03;6.47;;;17.50;99.90;;;;;;5034438;28;20974;-73
2023/07/27 12:02:40;;;;;;;6.60;6.20;;;17.50;99.90;;;;;;5034291;28;20429;-73
2023/07/27 12:05:13;;;;;;;7.23;6.73;;;17.60;99.90;;;;;;5035176;28;20915;-73
2023/07/27 12:07:43;;;;;;;6.70;6.20;;;17.60;99.90;;;;;;5034157;28;20434;-72
2023/07/27 12:10:14;;;;;;;7.10;6.50;;;17.60;99.90;;;;;;5034165;28;20450;-73
2023/07/27 12:12:51;;;;;;;7.73;7.13;;;17.60;99.90;;;;;;5034064;28;20459;-73
2023/07/27 12:15:27;;;;;;;7.23;6.63;;;17.60;99.90;;;;;;5034331;28;20427;-73
2023/07/27 12:17:59;;;;;;;6.43;5.90;;;17.70;99.90;;;;;;5034186;28;20762;-73
2023/07/27 12:20:28;;;;;;;6.00;5.60;;;17.70;99.90;;;;;;5032862;28;20465;-72
2023/07/27 12:23:16;;;;;;;6.27;5.77;;;17.80;99.90;;;;;;5032680;28;20455;-72
2023/07/27 12:25:48;;;;;;;7.30;6.50;;;17.80;99.90;;;;;;5033959;28;20522;-72
2023/07/27 12:28:36;;;;;;;6.87;6.27;;;17.80;99.90;;;;;;5034171;28;20451;-72
2023/07/27 12:31:09;;;;;;;5.60;5.20;;;17.80;99.90;;;;;;5033841;28;20635;-72
2023/07/27 12:33:41;;;;;;;6.10;5.70;;;17.80;99.90;;;;;;5033779;28;20408;-72
2023/07/27 12:36:10;;;;;;;5.90;5.40;;;17.80;99.90;;;;;;5033808;28;20413;-72
2023/07/27 12:38:38;;;;;;;5.77;5.30;;;17.80;99.90;;;;;;5034220;28;20435;-72
2023/07/27 12:41:09;;;;;;;6.10;5.70;;;17.80;99.90;;;;;;5032325;28;20528;-72
2023/07/27 12:43:40;;;;;;;6.03;5.53;;;17.80;99.90;;;;;;5032375;28;20882;-72
2023/07/27 12:46:08;;;;;;;4.87;4.47;;;17.80;99.90;;;;;;5034175;28;20466;-72